createdAt,value
2023-06-19T00:00:49.856Z,99846.53
2023-06-19T00:03:55.741Z,99845.60
2023-06-19T00:07:02.726Z,99845.14
2023-06-19T00:13:23.152Z,99841.19
2023-06-19T00:16:28.699Z,99845.97
2023-06-19T00:19:33.921Z,99848.63
2023-06-19T00:22:40.253Z,99845.73
2023-06-19T00:25:45.940Z,99848.09
2023-06-19T00:28:53.402Z,99841.19
2023-06-19T00:32:02.140Z,99834.52
2023-06-19T00:35:09.358Z,99840.96
2023-06-19T00:38:16.071Z,99838.42
2023-06-19T00:41:20.854Z,99840.38
2023-06-19T00:44:19.248Z,99840.38
2023-06-19T00:47:16.030Z,99839.22
2023-06-19T00:50:22.777Z,99839.96
2023-06-19T00:53:27.461Z,99840.08
2023-06-19T00:56:32.531Z,99840.00
2023-06-19T00:59:38.643Z,99842.19
2023-06-19T01:02:43.989Z,99841.19
2023-06-19T01:05:50.146Z,99844.26
2023-06-19T01:09:02.837Z,99837.73
2023-06-19T01:12:13.751Z,99843.97
2023-06-19T01:15:20.166Z,99840.55
2023-06-19T01:18:24.908Z,99842.00
2023-06-19T01:21:33.067Z,99843.87
2023-06-19T01:24:39.242Z,99840.35
2023-06-19T01:27:43.590Z,99845.61
2023-06-19T01:30:49.942Z,99842.73
2023-06-19T01:33:56.571Z,99836.19
2023-06-19T01:37:04.470Z,99840.06
2023-06-19T01:40:12.209Z,99842.73
2023-06-19T01:43:18.246Z,99846.73
2023-06-19T01:46:23.117Z,99840.31
2023-06-19T01:49:28.747Z,99848.03
2023-06-19T01:52:35.892Z,99848.22
2023-06-19T01:55:41.420Z,99843.31
2023-06-19T01:58:46.566Z,99852.78
2023-06-19T02:01:53.463Z,99856.23
2023-06-19T02:05:02.135Z,99857.63
2023-06-19T02:08:08.449Z,99844.48
2023-06-19T02:11:14.434Z,99840.37
2023-06-19T02:14:20.672Z,99845.88
2023-06-19T02:17:27.121Z,99849.09
2023-06-19T02:20:35.216Z,99843.18
2023-06-19T02:23:41.394Z,99850.48
2023-06-19T02:26:47.189Z,99851.23
2023-06-19T02:29:52.528Z,99856.20
2023-06-19T02:32:58.532Z,99857.69
2023-06-19T02:36:06.028Z,99856.53
2023-06-19T02:39:12.538Z,99855.83
2023-06-19T02:42:18.265Z,99848.64
2023-06-19T02:45:24.360Z,99855.77
2023-06-19T02:48:30.805Z,99848.25
2023-06-19T02:51:37.906Z,99852.92
2023-06-19T02:54:44.514Z,99848.28
2023-06-19T02:57:50.017Z,99852.83
2023-06-19T03:00:55.454Z,99844.89
2023-06-19T03:04:02.256Z,99850.23
2023-06-19T03:07:11.158Z,99849.67
2023-06-19T03:10:19.859Z,99849.15
2023-06-19T03:13:24.565Z,99850.33
2023-06-19T03:16:30.853Z,99843.59
2023-06-19T03:19:37.001Z,99844.77
2023-06-19T03:22:44.417Z,99846.42
2023-06-19T03:25:50.333Z,99849.02
2023-06-19T03:28:57.091Z,99840.69
2023-06-19T03:32:05.527Z,99847.56
2023-06-19T03:35:06.482Z,99847.63
2023-06-19T03:38:00.052Z,99849.20
2023-06-19T03:41:05.938Z,99853.41
2023-06-19T03:44:12.500Z,99852.94
2023-06-19T03:47:19.099Z,99851.66
2023-06-19T03:50:27.204Z,99859.55
2023-06-19T03:53:31.817Z,99852.84
2023-06-19T03:56:37.581Z,99851.45
2023-06-19T03:59:43.499Z,99848.94
2023-06-19T04:02:50.625Z,99859.56
2023-06-19T04:05:56.396Z,99861.22
2023-06-19T04:09:01.930Z,99856.19
2023-06-19T04:12:09.316Z,99859.23
2023-06-19T04:15:15.437Z,99856.08
2023-06-19T04:18:21.792Z,99868.61
2023-06-19T04:21:29.957Z,99874.05
2023-06-19T04:24:37.318Z,99867.02
2023-06-19T04:27:43.214Z,99870.07
2023-06-19T04:30:49.308Z,99871.23
2023-06-19T04:33:54.290Z,99873.70
2023-06-19T04:37:00.445Z,99872.63
2023-06-19T04:40:06.712Z,99877.11
2023-06-19T04:43:04.800Z,99885.89
2023-06-19T04:46:12.504Z,99897.41
2023-06-19T04:49:17.720Z,99885.73
2023-06-19T04:52:23.206Z,99891.89
2023-06-19T04:55:29.959Z,99894.77
2023-06-19T04:58:35.985Z,99895.90
2023-06-19T05:01:42.213Z,99893.67
2023-06-19T05:04:50.059Z,99905.69
2023-06-19T05:07:55.825Z,99900.64
2023-06-19T05:11:02.981Z,99908.77
2023-06-19T05:14:09.055Z,99904.55
2023-06-19T05:17:14.268Z,99902.87
2023-06-19T05:20:21.345Z,99903.98
2023-06-19T05:23:27.632Z,99907.08
2023-06-19T05:26:34.104Z,99913.53
2023-06-19T05:29:39.719Z,99923.58
2023-06-19T05:32:46.769Z,99916.03
2023-06-19T05:35:54.385Z,99911.54
2023-06-19T05:39:00.975Z,99916.02
2023-06-19T05:42:07.356Z,99924.13
2023-06-19T05:45:13.689Z,99928.05
2023-06-19T05:48:19.321Z,99922.99
2023-06-19T05:51:25.088Z,99925.78
2023-06-19T05:54:31.502Z,99925.77
2023-06-19T05:57:38.400Z,99918.75
2023-06-19T06:00:44.812Z,99931.02
2023-06-19T06:03:43.895Z,99923.47
2023-06-19T06:06:29.470Z,99919.79
2023-06-19T06:09:23.943Z,99914.73
2023-06-19T06:12:23.856Z,99908.84
2023-06-19T06:15:29.618Z,99913.50
2023-06-19T06:18:35.984Z,99914.80
2023-06-19T06:21:42.589Z,99911.13
2023-06-19T06:24:47.925Z,99904.66
2023-06-19T06:27:53.808Z,99909.38
2023-06-19T06:31:03.390Z,99914.87
2023-06-19T06:34:09.138Z,99917.89
2023-06-19T06:37:15.285Z,99917.61
2023-06-19T06:40:23.282Z,99916.26
2023-06-19T06:43:29.264Z,99927.73
2023-06-19T06:46:36.885Z,99927.92
2023-06-19T06:49:41.797Z,99918.98
2023-06-19T06:52:49.531Z,99914.41
2023-06-19T06:55:55.341Z,99925.89
2023-06-19T06:59:01.975Z,99914.30
2023-06-19T07:02:08.314Z,99918.47
2023-06-19T07:05:13.821Z,99904.34
2023-06-19T07:08:19.302Z,99908.75
2023-06-19T07:11:25.178Z,99905.88
2023-06-19T07:14:31.154Z,99913.10
2023-06-19T07:17:36.136Z,99905.23
2023-06-19T07:20:41.530Z,99903.41
2023-06-19T07:23:47.542Z,99900.91
2023-06-19T07:26:52.390Z,99901.70
2023-06-19T07:29:59.832Z,99898.14
2023-06-19T07:33:06.454Z,99912.48
2023-06-19T07:36:12.731Z,99902.88
2023-06-19T07:39:18.620Z,99910.51
2023-06-19T07:42:25.036Z,99915.55
2023-06-19T07:45:30.985Z,99910.58
2023-06-19T07:48:37.046Z,99911.37
2023-06-19T07:51:43.247Z,99905.38
2023-06-19T07:55:03.931Z,99915.30
2023-06-19T07:58:09.603Z,99909.03
2023-06-19T08:01:14.561Z,99917.70
2023-06-19T08:04:21.796Z,99914.72
2023-06-19T08:07:28.121Z,99906.48
2023-06-19T08:10:46.802Z,99904.88
2023-06-19T08:13:51.788Z,99904.17
2023-06-19T08:16:57.769Z,99900.83
2023-06-19T08:20:02.863Z,99903.98
2023-06-19T08:23:09.163Z,99903.83
2023-06-19T08:26:16.268Z,99901.92
2023-06-19T08:29:21.169Z,99893.93
2023-06-19T08:32:26.276Z,99909.28
2023-06-19T08:35:31.566Z,99904.86
2023-06-19T08:38:35.925Z,99904.02
2023-06-19T08:41:42.470Z,99902.81
2023-06-19T08:44:48.689Z,99906.95
2023-06-19T08:47:53.981Z,99904.33
2023-06-19T08:51:01.481Z,99908.45
2023-06-19T08:54:14.488Z,99912.08
2023-06-19T08:57:21.778Z,99909.81
2023-06-19T09:00:30.375Z,99908.58
2023-06-19T09:03:39.513Z,99912.27
2023-06-19T09:06:46.241Z,99920.58
2023-06-19T09:09:51.994Z,99918.55
2023-06-19T09:13:12.377Z,99920.99
2023-06-19T09:16:23.178Z,99913.78
2023-06-19T09:19:30.288Z,99904.29
2023-06-19T09:22:38.092Z,99910.88
2023-06-19T09:25:35.830Z,99913.74
2023-06-19T09:28:39.256Z,99909.77
2023-06-19T09:31:43.839Z,99906.41
2023-06-19T09:34:48.961Z,99910.62
2023-06-19T09:37:55.915Z,99894.24
2023-06-19T09:41:03.600Z,99906.48
2023-06-19T09:44:08.049Z,99895.52
2023-06-19T09:47:01.521Z,99899.33
2023-06-19T09:50:11.089Z,99884.05
2023-06-19T09:53:18.562Z,99892.21
2023-06-19T09:56:23.828Z,99889.17
2023-06-19T09:59:29.942Z,99890.96
2023-06-19T10:02:36.644Z,99891.74
2023-06-19T10:05:48.586Z,99888.59
2023-06-19T10:08:58.966Z,99893.64
2023-06-19T10:12:06.777Z,99876.49
2023-06-19T10:15:13.369Z,99891.20
2023-06-19T10:18:19.769Z,99885.44
2023-06-19T10:21:34.804Z,99886.56
2023-06-19T10:24:42.213Z,99891.94
2023-06-19T10:27:55.181Z,99891.59
2023-06-19T10:31:03.321Z,99875.63
2023-06-19T10:34:09.849Z,99871.14
2023-06-19T10:37:16.217Z,99877.45
2023-06-19T10:40:23.527Z,99868.31
2023-06-19T10:43:36.899Z,99876.19
2023-06-19T10:46:50.324Z,99869.80
2023-06-19T10:49:55.559Z,99866.75
2023-06-19T10:53:02.253Z,99864.93
2023-06-19T10:56:12.706Z,99859.09
2023-06-19T10:59:22.654Z,99863.80
2023-06-19T11:02:28.137Z,99854.53
2023-06-19T11:05:36.063Z,99853.94
2023-06-19T11:08:35.832Z,99858.44
2023-06-19T11:11:35.195Z,99850.95
2023-06-19T11:14:46.911Z,99856.00
2023-06-19T11:17:52.778Z,99847.80
2023-06-19T11:21:07.108Z,99850.13
2023-06-19T11:24:16.826Z,99852.15
2023-06-19T11:27:24.329Z,99853.85
2023-06-19T11:30:29.733Z,99859.09
2023-06-19T11:33:37.713Z,99860.84
2023-06-19T11:36:44.087Z,99848.73
2023-06-19T11:39:49.693Z,99854.30
2023-06-19T11:43:08.714Z,99853.31
2023-06-19T11:46:24.014Z,99847.31
2023-06-19T11:49:32.924Z,99849.29
2023-06-19T11:52:38.077Z,99846.38
2023-06-19T11:55:44.333Z,99859.97
2023-06-19T11:58:52.322Z,99841.10
2023-06-19T12:01:58.613Z,99833.65
2023-06-19T12:05:05.221Z,99832.41
2023-06-19T12:08:12.421Z,99842.60
2023-06-19T12:11:18.398Z,99838.95
2023-06-19T12:14:24.573Z,99830.34
2023-06-19T12:17:30.168Z,99826.52
2023-06-19T12:20:36.146Z,99830.59
2023-06-19T12:23:41.697Z,99827.61
2023-06-19T12:26:49.198Z,99827.96
2023-06-19T12:29:54.239Z,99830.94
2023-06-19T12:33:00.201Z,99822.68
2023-06-19T12:36:05.733Z,99831.44
2023-06-19T12:39:14.402Z,99817.30
2023-06-19T12:42:20.864Z,99818.90
2023-06-19T12:45:26.184Z,99828.50
2023-06-19T12:48:31.318Z,99818.95
2023-06-19T12:51:38.691Z,99816.14
2023-06-19T12:54:45.291Z,99804.47
2023-06-19T12:57:52.713Z,99812.78
2023-06-19T13:00:59.091Z,99804.02
2023-06-19T13:04:06.380Z,99806.51
2023-06-19T13:07:11.920Z,99807.49
2023-06-19T13:10:26.471Z,99809.22
2023-06-19T13:13:32.835Z,99806.95
2023-06-19T13:19:46.604Z,99810.00
2023-06-19T13:22:53.320Z,99797.88
2023-06-19T13:25:59.205Z,99806.39
2023-06-19T13:29:06.764Z,99800.02
2023-06-19T13:32:12.490Z,99795.61
2023-06-19T13:35:18.430Z,99789.98
2023-06-19T13:38:24.101Z,99786.95
2023-06-19T13:41:31.572Z,99787.04
2023-06-19T13:44:36.814Z,99777.23
2023-06-19T13:47:42.546Z,99773.33
2023-06-19T13:50:48.052Z,99773.64
2023-06-19T13:53:54.510Z,99775.05
2023-06-19T13:57:00.070Z,99774.09
2023-06-19T14:00:06.301Z,99769.88
2023-06-19T14:03:15.221Z,99775.75
2023-06-19T14:06:22.500Z,99769.16
2023-06-19T14:09:32.078Z,99777.44
2023-06-19T14:12:30.207Z,99762.80
2023-06-19T14:15:37.466Z,99766.53
2023-06-19T14:18:45.137Z,99771.32
2023-06-19T14:21:50.160Z,99768.51
2023-06-19T14:24:56.189Z,99775.48
2023-06-19T14:28:03.289Z,99774.48
2023-06-19T14:31:09.445Z,99784.89
2023-06-19T14:34:14.753Z,99777.55
2023-06-19T14:37:21.434Z,99787.05
2023-06-19T14:40:27.212Z,99784.17
2023-06-19T14:43:26.598Z,99782.34
2023-06-19T14:46:38.511Z,99779.67
2023-06-19T14:49:39.498Z,99786.88
2023-06-19T14:52:45.996Z,99782.83
2023-06-19T14:55:53.246Z,99787.27
2023-06-19T14:58:59.329Z,99791.60
2023-06-19T15:01:59.406Z,99792.26
2023-06-19T15:05:07.213Z,99797.83
2023-06-19T15:08:13.830Z,99803.01
2023-06-19T15:11:20.694Z,99799.96
2023-06-19T15:14:26.624Z,99797.16
2023-06-19T15:17:32.264Z,99804.41
2023-06-19T15:20:38.964Z,99809.20
2023-06-19T15:23:45.419Z,99799.70
2023-06-19T15:26:53.434Z,99803.10
2023-06-19T15:29:58.713Z,99803.53
2023-06-19T15:33:06.215Z,99801.23
2023-06-19T15:36:11.898Z,99800.61
2023-06-19T15:39:18.065Z,99798.67
2023-06-19T15:42:23.579Z,99805.44
2023-06-19T15:45:28.935Z,99794.79
2023-06-19T15:48:36.714Z,99800.17
2023-06-19T15:51:43.127Z,99799.72
2023-06-19T15:54:48.595Z,99795.08
2023-06-19T15:57:55.054Z,99802.42
2023-06-19T16:01:01.308Z,99803.58
2023-06-19T16:04:06.877Z,99802.16
2023-06-19T16:07:12.155Z,99807.61
2023-06-19T16:10:25.549Z,99809.78
2023-06-19T16:13:31.052Z,99816.53
2023-06-19T16:16:38.367Z,99818.77
2023-06-19T16:19:44.727Z,99821.09
2023-06-19T16:22:43.948Z,99820.02
2023-06-19T16:25:50.024Z,99824.89
2023-06-19T16:28:54.811Z,99826.09
2023-06-19T16:32:09.716Z,99832.64
2023-06-19T16:35:09.095Z,99823.61
2023-06-19T16:38:15.665Z,99831.30
2023-06-19T16:41:21.427Z,99834.52
2023-06-19T16:44:27.179Z,99836.49
2023-06-19T16:47:35.016Z,99832.41
2023-06-19T16:50:43.885Z,99838.05
2023-06-19T16:53:51.358Z,99838.63
2023-06-19T16:56:55.713Z,99827.80
2023-06-19T17:00:01.274Z,99829.80
2023-06-19T17:03:09.017Z,99830.66
2023-06-19T17:06:08.806Z,99832.09
2023-06-19T17:09:14.228Z,99825.45
2023-06-19T17:12:19.989Z,99827.74
2023-06-19T17:15:25.542Z,99828.35
2023-06-19T17:18:31.511Z,99830.34
2023-06-19T17:21:37.276Z,99837.69
2023-06-19T17:24:44.039Z,99835.45
2023-06-19T17:27:49.380Z,99838.28
2023-06-19T17:30:56.092Z,99845.58
2023-06-19T17:34:02.449Z,99845.86
2023-06-19T17:37:09.868Z,99855.06
2023-06-19T17:40:17.145Z,99853.12
2023-06-19T17:43:15.263Z,99868.22
2023-06-19T17:46:09.348Z,99863.70
2023-06-19T17:49:15.954Z,99863.95
2023-06-19T17:52:21.963Z,99875.95
2023-06-19T17:55:26.724Z,99878.16
2023-06-19T17:58:34.399Z,99888.97
2023-06-19T18:01:39.685Z,99890.06
2023-06-19T18:04:46.267Z,99894.63
2023-06-19T18:07:52.045Z,99896.58
2023-06-19T18:10:57.638Z,99899.28
2023-06-19T18:14:03.334Z,99902.36
2023-06-19T18:17:10.442Z,99909.52
2023-06-19T18:20:16.108Z,99910.70
2023-06-19T18:23:21.372Z,99913.42
2023-06-19T18:26:26.548Z,99917.60
2023-06-19T18:29:33.184Z,99917.59
2023-06-19T18:32:38.771Z,99926.40
2023-06-19T18:35:44.539Z,99920.50
2023-06-19T18:38:50.074Z,99922.31
2023-06-19T18:41:55.802Z,99918.84
2023-06-19T18:45:01.649Z,99923.61
2023-06-19T18:48:07.718Z,99927.02
2023-06-19T18:51:13.107Z,99927.80
2023-06-19T18:54:19.027Z,99927.64
2023-06-19T18:57:24.766Z,99924.02
2023-06-19T19:00:34.176Z,99926.53
2023-06-19T19:03:40.366Z,99924.73
2023-06-19T19:06:46.923Z,99927.95
2023-06-19T19:09:53.290Z,99925.13
2023-06-19T19:13:00.395Z,99924.23
2023-06-19T19:16:06.221Z,99924.06
2023-06-19T19:19:12.914Z,99923.57
2023-06-19T19:22:17.696Z,99915.88
2023-06-19T19:25:22.738Z,99914.42
2023-06-19T19:28:30.444Z,99913.10
2023-06-19T19:31:36.708Z,99916.23
2023-06-19T19:34:41.616Z,99911.78
2023-06-19T19:37:47.458Z,99909.77
2023-06-19T19:40:53.686Z,99912.28
2023-06-19T19:43:59.375Z,99908.59
2023-06-19T19:47:05.290Z,99909.61
2023-06-19T19:50:13.838Z,99908.95
2023-06-19T19:53:19.881Z,99907.36
2023-06-19T19:56:26.264Z,99903.92
2023-06-19T19:59:32.042Z,99904.97
2023-06-19T20:02:37.702Z,99908.79
2023-06-19T20:05:43.265Z,99906.70
2023-06-19T20:08:51.713Z,99904.56
2023-06-19T20:12:12.175Z,99902.89
2023-06-19T20:15:05.775Z,99908.11
2023-06-19T20:18:10.607Z,99903.37
2023-06-19T20:21:15.400Z,99909.56
2023-06-19T20:24:20.392Z,99911.42
2023-06-19T20:27:26.968Z,99907.18
2023-06-19T20:30:25.436Z,99904.55
2023-06-19T20:33:23.996Z,99908.99
2023-06-19T20:36:29.902Z,99916.48
2023-06-19T20:39:34.730Z,99908.16
2023-06-19T20:42:40.605Z,99910.67
2023-06-19T20:45:48.497Z,99911.06
2023-06-19T20:48:55.800Z,99916.14
2023-06-19T20:52:02.404Z,99924.13
2023-06-19T20:55:07.637Z,99923.41
2023-06-19T20:58:13.541Z,99924.72
2023-06-19T21:01:20.572Z,99929.09
2023-06-19T21:04:26.422Z,99940.52
2023-06-19T21:07:32.978Z,99935.99
2023-06-19T21:10:38.572Z,99935.32
2023-06-19T21:13:45.412Z,99937.00
2023-06-19T21:16:51.358Z,99938.48
2023-06-19T21:19:57.491Z,99937.78
2023-06-19T21:23:06.276Z,99936.94
2023-06-19T21:26:11.858Z,99937.46
2023-06-19T21:29:18.039Z,99940.81
2023-06-19T21:32:24.421Z,99944.17
2023-06-19T21:35:30.142Z,99933.57
2023-06-19T21:38:39.061Z,99934.89
2023-06-19T21:41:45.400Z,99932.48
2023-06-19T21:44:51.587Z,99930.44
2023-06-19T21:47:58.252Z,99937.95
2023-06-19T21:51:03.344Z,99924.55
2023-06-19T21:54:09.314Z,99931.02
2023-06-19T21:57:15.133Z,99930.88
2023-06-19T22:00:22.691Z,99934.09
2023-06-19T22:03:28.662Z,99934.94
2023-06-19T22:06:33.926Z,99933.11
2023-06-19T22:09:38.703Z,99930.59
2023-06-19T22:12:45.266Z,99930.90
2023-06-19T22:15:51.066Z,99937.45
2023-06-19T22:18:56.791Z,99935.59
2023-06-19T22:22:01.741Z,99925.23
2023-06-19T22:25:06.863Z,99930.39
2023-06-19T22:28:13.560Z,99928.23
2023-06-19T22:31:19.224Z,99926.31
2023-06-19T22:34:24.419Z,99920.64
2023-06-19T22:37:30.284Z,99929.92
2023-06-19T22:40:35.641Z,99934.62
2023-06-19T22:43:41.679Z,99941.04
2023-06-19T22:46:48.251Z,99938.45
2023-06-19T22:49:54.132Z,99940.17
2023-06-19T22:53:00.051Z,99939.98
2023-06-19T22:56:05.048Z,99944.22
2023-06-19T22:59:10.863Z,99936.30
2023-06-19T23:02:16.732Z,99934.19
2023-06-19T23:05:24.537Z,99939.30
2023-06-19T23:08:30.883Z,99931.75
2023-06-19T23:11:37.815Z,99938.94
2023-06-19T23:14:44.818Z,99937.77
2023-06-19T23:17:51.388Z,99931.27
2023-06-19T23:20:56.984Z,99927.03
2023-06-19T23:24:03.866Z,99926.81
2023-06-19T23:27:10.494Z,99924.52
2023-06-19T23:30:10.516Z,99924.16
2023-06-19T23:33:17.478Z,99924.27
2023-06-19T23:36:22.513Z,99922.59
2023-06-19T23:39:27.536Z,99931.63
2023-06-19T23:42:32.480Z,99925.21
2023-06-19T23:45:40.059Z,99919.48
2023-06-19T23:48:46.103Z,99914.70
2023-06-19T23:51:53.327Z,99913.02
2023-06-19T23:55:00.396Z,99918.16
2023-06-19T23:58:06.941Z,99920.72
